Flight Track Log - Related Links

Times and Time Zones

All times are in EDT time to prevent confusion due to time zone crossing. See the BJS542 flight status page for this flight to view local times or setup timezone preferences in your user account.

Time Position Orientation Groundspeed Altitude Reporting Facility
EDT Latitude Longitude Course Direction KTS MPH feet Rate Location/Type
Sun 02:00:01 PM 38.2053 -78.4797 277° West 193 222 6,600  Level Washington Center
Sun 02:01:02 PM 38.2136 -78.5700 277° West 220 253 9,400 3,197 Climbing Washington Center
Sun 02:02:03 PM 38.2183 -78.7103 272° West 310 357 13,100 4,264 Climbing Washington Center
Sun 02:03:03 PM 38.2275 -78.8375 275° West 353 406 18,000 3,508 Climbing Washington Center
Sun 02:04:01 PM 38.2344 -78.9647 274° West 365 420 20,000 1,678 Climbing Washington Center
Sun 02:05:01 PM 38.2431 -79.0947 275° West 372 428 21,300 1,300 Climbing Washington Center
Sun 02:06:01 PM 38.2478 -79.2192 273° West 385 443 22,600 843 Climbing Washington Center
Sun 02:07:02 PM 38.2556 -79.3731 274° West 411 473 23,000 645 Climbing Washington Center
Sun 02:08:02 PM 38.2756 -79.5247 280° West 434 499 23,900 1,339 Climbing Washington Center
Sun 02:09:03 PM 38.2847 -79.6867 274° West 428 493 25,700 1,636 Climbing Washington Center
Sun 02:10:03 PM 38.2800 -79.8292 268° West 421 484 27,200 1,525 Climbing Washington Center
Sun 02:11:01 PM 38.2744 -79.9822 267° West 421 484 28,700 1,613 Climbing Washington Center
Sun 02:12:02 PM 38.2664 -80.1406 266° West 438 504 30,400 1,590 Climbing Washington Center
Sun 02:14:21 PM 38.3061 -80.4844 277° West 450 518 34,000 1,075 Climbing Indianapolis Center
Sun 02:15:23 PM 38.3322 -80.6383 282° West 448 516 34,000  Level Indianapolis Center
Sun 02:16:25 PM 38.3544 -80.7911 281° West 438 504 34,000  Level Indianapolis Center
Sun 02:17:27 PM 38.3761 -80.9433 280° West 436 502 34,000  Level Indianapolis Center
Sun 02:18:29 PM 38.4025 -81.1292 280° West 441 507 34,000  Level Indianapolis Center
Sun 02:19:31 PM 38.4231 -81.2833 280° West 439 505 34,000  Level Indianapolis Center
Sun 02:20:32 PM 38.4450 -81.4394 280° West 442 509 34,000  Level Indianapolis Center
Sun 02:22:00 PM 38.4755 -81.6291 282° West  Level FlightAware Approximate
Sun 02:22:36 PM 38.4886 -81.7544 282° West 444 511 34,000  Level Indianapolis Center
Sun 02:23:38 PM 38.5092 -81.9119 280° West 445 512 34,000  Level Indianapolis Center
Sun 02:24:40 PM 38.5297 -82.0686 280° West 445 512 34,000 -339 Level Indianapolis Center
Sun 02:25:42 PM 38.5497 -82.2258 279° West 448 516 33,300 -1,161 Descending Indianapolis Center
Sun 02:26:44 PM 38.5711 -82.3908 279° West 466 536 31,600 -1,694 Descending Indianapolis Center
Sun 02:27:46 PM 38.5950 -82.5833 279° West 477 549 29,800 -1,645 Descending Indianapolis Center
Sun 02:28:48 PM 38.6164 -82.7519 279° West 482 555 28,200 -1,561 Descending Indianapolis Center
Sun 02:29:49 PM 38.6372 -82.9192 279° West 477 549 26,600 -1,597 Descending Indianapolis Center
Sun 02:30:52 PM 38.6689 -83.0875 284° West 461 531 24,900 -2,032 Descending Indianapolis Center
Sun 02:31:53 PM 38.7011 -83.2342 286° West 444 511 22,400 -2,537 Descending Indianapolis Center
Sun 02:32:55 PM 38.7347 -83.3842 286° West 436 502 19,700 -2,516 Descending Indianapolis Center
Sun 02:33:57 PM 38.7658 -83.5281 286° West 420 483 17,200 -3,145 Descending Indianapolis Center
Sun 02:34:59 PM 38.7997 -83.6847 286° West 389 448 13,200 -3,532 Descending Indianapolis Center
Sun 02:36:01 PM 38.8150 -83.8081 279° West 354 407 9,900 -3,048 Descending Indianapolis Center
Sun 02:37:03 PM 38.8283 -83.9194 279° West 319 367 6,900 -1,887 Descending Indianapolis Center
Sun 02:38:05 PM 38.8689 -84.0003 303° West 291 335 6,000 -1,258 Descending Indianapolis Center
Sun 02:39:07 PM 38.9389 -84.0619 326° Northwest 298 343 4,300 -968 Descending Indianapolis Center
Sun 02:40:09 PM 39.0075 -84.1264 324° Northwest 302 348 4,000 -145 Descending Indianapolis Center
Sun 02:41:11 PM 39.0814 -84.1847 329° Northwest 305 351 4,000 -194 Level Indianapolis Center
Sun 02:42:13 PM 39.1561 -84.2442 328° Northwest 309 356 3,600 -532 Descending Indianapolis Center
Sun 02:43:15 PM 39.2175 -84.3147 318° Northwest 283 326 2,900 -435 Descending Indianapolis Center
Sun 02:44:17 PM 39.1931 -84.3806 244° Southwest 259 298 2,700 -194 Descending Indianapolis Center

Login

Don't have an account? Register now (free) for customized features, flight alerts, and more!